sensor_id;sensor_type;location;lat;lon;timestamp;pressure;altitude;pressure_sealevel;temperature;humidity
60715;BME280;46564;53.096;8.246;2022-07-23T00:02:38;98708.66;;;14.15;75.21
60715;BME280;46564;53.096;8.246;2022-07-23T00:07:40;98711.34;;;14.13;75.58
60715;BME280;46564;53.096;8.246;2022-07-23T00:12:42;98726.19;;;14.16;75.67
60715;BME280;46564;53.096;8.246;2022-07-23T00:17:52;98692.31;;;14.05;75.85
60715;BME280;46564;53.096;8.246;2022-07-23T00:22:55;98663.66;;;13.94;76.05
60715;BME280;46564;53.096;8.246;2022-07-23T00:27:57;98636.72;;;13.88;76.24
60715;BME280;46564;53.096;8.246;2022-07-23T00:33:02;98621.97;;;13.82;76.30
60715;BME280;46564;53.096;8.246;2022-07-23T00:38:05;98650.72;;;13.88;76.54
60715;BME280;46564;53.096;8.246;2022-07-23T00:43:07;98676.81;;;13.94;76.62
60715;BME280;46564;53.096;8.246;2022-07-23T00:48:09;98701.34;;;13.96;76.84
60715;BME280;46564;53.096;8.246;2022-07-23T00:53:11;98703.97;;;13.96;76.83
60715;BME280;46564;53.096;8.246;2022-07-23T00:58:12;98702.28;;;13.94;77.48
60715;BME280;46564;53.096;8.246;2022-07-23T01:03:14;98715.41;;;13.95;77.35
60715;BME280;46564;53.096;8.246;2022-07-23T01:08:16;98731.19;;;13.95;77.61
60715;BME280;46564;53.096;8.246;2022-07-23T01:13:18;98709.44;;;13.90;77.94
60715;BME280;46564;53.096;8.246;2022-07-23T01:18:19;98700.78;;;13.85;77.80
60715;BME280;46564;53.096;8.246;2022-07-23T01:23:21;98663.34;;;13.77;78.06
60715;BME280;46564;53.096;8.246;2022-07-23T01:28:28;98639.06;;;13.67;78.15
60715;BME280;46564;53.096;8.246;2022-07-23T01:33:32;98628.59;;;13.66;78.28
60715;BME280;46564;53.096;8.246;2022-07-23T01:38:34;98659.16;;;13.70;78.54
60715;BME280;46564;53.096;8.246;2022-07-23T01:43:36;98630.53;;;13.60;78.70
60715;BME280;46564;53.096;8.246;2022-07-23T01:48:38;98617.50;;;13.56;78.77
60715;BME280;46564;53.096;8.246;2022-07-23T01:53:59;98625.31;;;13.59;79.02
60715;BME280;46564;53.096;8.246;2022-07-23T01:59:00;98645.38;;;13.61;79.12
60715;BME280;46564;53.096;8.246;2022-07-23T02:04:03;98666.38;;;13.63;79.20
60715;BME280;46564;53.096;8.246;2022-07-23T02:09:05;98615.03;;;13.51;79.37
60715;BME280;46564;53.096;8.246;2022-07-23T02:14:07;98604.63;;;13.47;79.58
60715;BME280;46564;53.096;8.246;2022-07-23T02:19:09;98607.31;;;13.45;79.70
60715;BME280;46564;53.096;8.246;2022-07-23T02:24:11;98615.19;;;13.45;79.93
60715;BME280;46564;53.096;8.246;2022-07-23T02:29:14;98604.75;;;13.42;79.83
60715;BME280;46564;53.096;8.246;2022-07-23T02:34:16;98598.69;;;13.40;80.11
60715;BME280;46564;53.096;8.246;2022-07-23T02:39:17;98608.31;;;13.41;80.36
60715;BME280;46564;53.096;8.246;2022-07-23T02:44:19;98622.28;;;13.41;80.34
60715;BME280;46564;53.096;8.246;2022-07-23T02:49:24;98631.03;;;13.42;80.57
60715;BME280;46564;53.096;8.246;2022-07-23T02:54:26;98630.22;;;13.40;80.59
60715;BME280;46564;53.096;8.246;2022-07-23T02:59:27;98626.84;;;13.36;80.82
60715;BME280;46564;53.096;8.246;2022-07-23T03:04:29;98628.59;;;13.36;81.04
60715;BME280;46564;53.096;8.246;2022-07-23T03:09:31;98624.25;;;13.35;81.16
60715;BME280;46564;53.096;8.246;2022-07-23T03:14:33;98621.69;;;13.32;81.18
60715;BME280;46564;53.096;8.246;2022-07-23T03:19:35;98606.91;;;13.27;81.54
60715;BME280;46564;53.096;8.246;2022-07-23T03:24:36;98578.25;;;13.18;81.49
60715;BME280;46564;53.096;8.246;2022-07-23T03:30:00;98533.03;;;13.07;81.56
60715;BME280;46564;53.096;8.246;2022-07-23T03:35:02;98527.88;;;13.04;81.54
60715;BME280;46564;53.096;8.246;2022-07-23T03:40:08;98512.25;;;12.99;81.67
60715;BME280;46564;53.096;8.246;2022-07-23T03:45:10;98519.28;;;12.99;82.00
60715;BME280;46564;53.096;8.246;2022-07-23T03:50:12;98502.75;;;12.94;82.08
60715;BME280;46564;53.096;8.246;2022-07-23T03:55:14;98488.97;;;12.87;82.25
60715;BME280;46564;53.096;8.246;2022-07-23T04:00:15;98444.63;;;12.76;82.23
60715;BME280;46564;53.096;8.246;2022-07-23T04:05:18;98425.59;;;12.68;82.24
60715;BME280;46564;53.096;8.246;2022-07-23T04:10:24;98421.28;;;12.65;82.47
60715;BME280;46564;53.096;8.246;2022-07-23T04:15:26;98397.00;;;12.59;82.67
60715;BME280;46564;53.096;8.246;2022-07-23T04:20:28;98380.50;;;12.53;82.70
60715;BME280;46564;53.096;8.246;2022-07-23T04:25:33;98373.66;;;12.49;82.74
60715;BME280;46564;53.096;8.246;2022-07-23T04:30:35;98353.69;;;12.44;82.88
60715;BME280;46564;53.096;8.246;2022-07-23T04:35:36;98357.16;;;12.44;83.06
60715;BME280;46564;53.096;8.246;2022-07-23T04:40:48;98350.31;;;12.40;83.13
60715;BME280;46564;53.096;8.246;2022-07-23T04:45:50;98333.81;;;12.35;83.15
60715;BME280;46564;53.096;8.246;2022-07-23T04:50:51;98329.50;;;12.32;83.20
60715;BME280;46564;53.096;8.246;2022-07-23T04:55:57;98351.25;;;12.37;83.28
60715;BME280;46564;53.096;8.246;2022-07-23T05:00:59;98400.00;;;12.46;83.56
60715;BME280;46564;53.096;8.246;2022-07-23T05:06:02;98449.56;;;12.57;83.57
60715;BME280;46564;53.096;8.246;2022-07-23T05:11:05;98499.13;;;12.68;83.75
60715;BME280;46564;53.096;8.246;2022-07-23T05:16:07;98564.28;;;12.85;83.88
60715;BME280;46564;53.096;8.246;2022-07-23T05:21:09;98588.69;;;12.90;83.96
60715;BME280;46564;53.096;8.246;2022-07-23T05:26:11;98630.44;;;12.99;83.98
60715;BME280;46564;53.096;8.246;2022-07-23T05:31:13;98719.28;;;13.18;84.15
60715;BME280;46564;53.096;8.246;2022-07-23T05:36:15;98817.69;;;13.42;84.67
60715;BME280;46564;53.096;8.246;2022-07-23T05:41:24;98982.34;;;13.82;84.19
60715;BME280;46564;53.096;8.246;2022-07-23T05:46:25;99087.03;;;14.05;84.50
60715;BME280;46564;53.096;8.246;2022-07-23T05:51:31;99097.53;;;14.07;84.62
60715;BME280;46564;53.096;8.246;2022-07-23T05:56:34;99091.44;;;14.05;84.76
60715;BME280;46564;53.096;8.246;2022-07-23T06:01:36;99137.69;;;14.15;84.82
60715;BME280;46564;53.096;8.246;2022-07-23T06:06:43;99201.41;;;14.29;84.91
60715;BME280;46564;53.096;8.246;2022-07-23T06:11:46;99295.69;;;14.51;84.92
60715;BME280;46564;53.096;8.246;2022-07-23T06:16:47;99390.09;;;14.73;85.14
60715;BME280;46564;53.096;8.246;2022-07-23T06:21:49;99528.19;;;15.05;85.17
60715;BME280;46564;53.096;8.246;2022-07-23T06:26:51;99658.50;;;15.36;85.18
60715;BME280;46564;53.096;8.246;2022-07-23T06:31:53;99722.41;;;15.51;85.30
60715;BME280;46564;53.096;8.246;2022-07-23T06:36:55;99741.66;;;15.54;85.32
60715;BME280;46564;53.096;8.246;2022-07-23T06:41:56;99775.81;;;15.62;85.38
60715;BME280;46564;53.096;8.246;2022-07-23T06:47:11;99848.47;;;15.82;85.16
60715;BME280;46564;53.096;8.246;2022-07-23T06:52:13;99910.69;;;15.95;85.32
60715;BME280;46564;53.096;8.246;2022-07-23T06:57:15;100018.50;;;16.21;85.27
60715;BME280;46564;53.096;8.246;2022-07-23T07:02:17;100111.41;;;16.43;85.05
60715;BME280;46564;53.096;8.246;2022-07-23T07:07:19;100183.34;;;16.61;85.25
60715;BME280;46564;53.096;8.246;2022-07-23T07:12:20;100118.44;;;16.44;85.07
60715;BME280;46564;53.096;8.246;2022-07-23T07:17:22;100116.66;;;16.45;84.93
60715;BME280;46564;53.096;8.246;2022-07-23T07:22:24;100066.69;;;16.33;84.71
60715;BME280;46564;53.096;8.246;2022-07-23T07:27:25;100010.63;;;16.18;84.63
60715;BME280;46564;53.096;8.246;2022-07-23T07:32:27;99933.47;;;16.01;84.58
60715;BME280;46564;53.096;8.246;2022-07-23T07:37:48;99885.28;;;15.89;84.44
60715;BME280;46564;53.096;8.246;2022-07-23T07:42:52;99878.28;;;15.88;84.33
60715;BME280;46564;53.096;8.246;2022-07-23T07:47:53;99865.19;;;15.82;84.26
60715;BME280;46564;53.096;8.246;2022-07-23T07:52:55;99835.38;;;15.76;84.39
60715;BME280;46564;53.096;8.246;2022-07-23T07:57:57;99824.88;;;15.72;84.24
60715;BME280;46564;53.096;8.246;2022-07-23T08:03:02;99840.63;;;15.77;84.19
60715;BME280;46564;53.096;8.246;2022-07-23T08:08:04;99942.28;;;16.00;84.54
60715;BME280;46564;53.096;8.246;2022-07-23T08:13:06;100024.69;;;16.19;83.92
60715;BME280;46564;53.096;8.246;2022-07-23T08:18:08;100036.06;;;16.22;84.42
60715;BME280;46564;53.096;8.246;2022-07-23T08:23:10;100141.31;;;16.47;84.30
60715;BME280;46564;53.096;8.246;2022-07-23T08:28:13;100345.84;;;16.94;84.00
60715;BME280;46564;53.096;8.246;2022-07-23T08:33:16;100611.22;;;17.59;83.97
60715;BME280;46564;53.096;8.246;2022-07-23T08:38:34;100855.00;;;18.16;84.18
60715;BME280;46564;53.096;8.246;2022-07-23T08:43:36;101093.84;;;18.72;83.76
60715;BME280;46564;53.096;8.246;2022-07-23T08:48:38;101365.63;;;19.37;83.65
60715;BME280;46564;53.096;8.246;2022-07-23T08:53:41;101678.50;;;20.09;83.58
60715;BME280;46564;53.096;8.246;2022-07-23T08:58:43;101934.31;;;20.73;83.14
60715;BME280;46564;53.096;8.246;2022-07-23T09:03:44;101832.41;;;20.53;82.72
60715;BME280;46564;53.096;8.246;2022-07-23T09:08:46;101773.97;;;20.43;82.48
60715;BME280;46564;53.096;8.246;2022-07-23T09:13:55;101556.34;;;19.97;82.13
60715;BME280;46564;53.096;8.246;2022-07-23T09:19:02;101927.13;;;20.83;81.66
60715;BME280;46564;53.096;8.246;2022-07-23T09:24:09;102071.50;;;21.22;81.24
60715;BME280;46564;53.096;8.246;2022-07-23T09:29:16;101979.31;;;21.04;80.63
60715;BME280;46564;53.096;8.246;2022-07-23T09:34:24;102133.53;;;21.44;80.14
60715;BME280;46564;53.096;8.246;2022-07-23T09:39:31;102176.97;;;21.59;79.58
60715;BME280;46564;53.096;8.246;2022-07-23T09:44:41;102478.81;;;22.33;78.96
60715;BME280;46564;53.096;8.246;2022-07-23T09:55:04;102240.75;;;21.89;77.90
60715;BME280;46564;53.096;8.246;2022-07-23T10:00:07;102126.28;;;21.68;77.13
60715;BME280;46564;53.096;8.246;2022-07-23T10:05:12;102191.91;;;21.86;76.56
60715;BME280;46564;53.096;8.246;2022-07-23T10:10:46;101921.41;;;21.29;75.98
60715;BME280;46564;53.096;8.246;2022-07-23T10:16:14;101664.59;;;20.76;75.56
60715;BME280;46564;53.096;8.246;2022-07-23T10:21:34;101949.69;;;21.43;74.89
60715;BME280;46564;53.096;8.246;2022-07-23T10:32:08;101788.41;;;21.14;73.95
60715;BME280;46564;53.096;8.246;2022-07-23T10:37:30;101847.69;;;21.30;73.58
60715;BME280;46564;53.096;8.246;2022-07-23T10:42:33;101495.47;;;20.50;73.15
60715;BME280;46564;53.096;8.246;2022-07-23T10:47:36;101352.28;;;20.16;72.97
60715;BME280;46564;53.096;8.246;2022-07-23T10:58:10;101665.28;;;20.93;71.83
60715;BME280;46564;53.096;8.246;2022-07-23T11:03:35;101990.31;;;21.73;71.94
60715;BME280;46564;53.096;8.246;2022-07-23T11:08:40;101958.34;;;21.69;71.24
60715;BME280;46564;53.096;8.246;2022-07-23T11:13:46;101818.28;;;21.41;71.05
60715;BME280;46564;53.096;8.246;2022-07-23T11:39:39;102128.41;;;22.31;68.99
60715;BME280;46564;53.096;8.246;2022-07-23T11:44:46;102308.53;;;22.75;68.56
60715;BME280;46564;53.096;8.246;2022-07-23T11:49:58;102452.44;;;23.14;67.93
60715;BME280;46564;53.096;8.246;2022-07-23T12:00:08;102030.66;;;22.21;67.16
60715;BME280;46564;53.096;8.246;2022-07-23T12:05:14;102028.81;;;22.26;66.89
60715;BME280;46564;53.096;8.246;2022-07-23T12:10:23;101790.41;;;21.71;66.20
60715;BME280;46564;53.096;8.246;2022-07-23T12:15:26;101742.53;;;21.62;65.84
60715;BME280;46564;53.096;8.246;2022-07-23T12:20:34;101831.06;;;21.87;65.51
60715;BME280;46564;53.096;8.246;2022-07-23T12:25:38;102106.78;;;22.53;65.15
60715;BME280;46564;53.096;8.246;2022-07-23T12:30:54;102240.75;;;22.90;64.90
60715;BME280;46564;53.096;8.246;2022-07-23T12:35:58;102109.31;;;22.64;64.52
60715;BME280;46564;53.096;8.246;2022-07-23T12:41:00;102086.25;;;22.61;64.02
60715;BME280;46564;53.096;8.246;2022-07-23T12:46:12;101907.94;;;22.21;63.72
60715;BME280;46564;53.096;8.246;2022-07-23T12:51:17;101679.38;;;21.68;63.35
60715;BME280;46564;53.096;8.246;2022-07-23T13:01:35;101589.06;;;21.50;62.72
60715;BME280;46564;53.096;8.246;2022-07-23T13:06:41;101556.28;;;21.43;62.38
60715;BME280;46564;53.096;8.246;2022-07-23T13:11:44;101888.34;;;22.25;62.02
60715;BME280;46564;53.096;8.246;2022-07-23T13:17:06;102152.59;;;22.92;62.07
60715;BME280;46564;53.096;8.246;2022-07-23T13:22:08;102094.84;;;22.83;61.73
60715;BME280;46564;53.096;8.246;2022-07-23T13:27:10;102102.78;;;22.88;61.09
60715;BME280;46564;53.096;8.246;2022-07-23T13:32:13;101979.47;;;22.61;61.00
60715;BME280;46564;53.096;8.246;2022-07-23T13:37:15;102052.16;;;22.80;60.85
60715;BME280;46564;53.096;8.246;2022-07-23T13:42:16;102053.03;;;22.82;60.41
60715;BME280;46564;53.096;8.246;2022-07-23T13:47:18;102084.06;;;22.92;60.34
60715;BME280;46564;53.096;8.246;2022-07-23T13:52:20;102167.44;;;23.16;60.04
60715;BME280;46564;53.096;8.246;2022-07-23T13:57:21;102380.56;;;23.70;59.69
60715;BME280;46564;53.096;8.246;2022-07-23T14:02:25;102208.22;;;23.30;59.41
60715;BME280;46564;53.096;8.246;2022-07-23T14:07:27;102100.72;;;23.08;59.39
60715;BME280;46564;53.096;8.246;2022-07-23T14:12:28;101963.19;;;22.78;59.04
60715;BME280;46564;53.096;8.246;2022-07-23T14:17:39;102038.59;;;22.97;58.62
60715;BME280;46564;53.096;8.246;2022-07-23T14:22:41;102155.69;;;23.28;58.41
60715;BME280;46564;53.096;8.246;2022-07-23T14:27:44;102265.81;;;23.55;58.19
60715;BME280;46564;53.096;8.246;2022-07-23T14:32:46;102339.47;;;23.77;57.90
60715;BME280;46564;53.096;8.246;2022-07-23T14:37:48;102137.81;;;23.33;57.86
60715;BME280;46564;53.096;8.246;2022-07-23T14:42:50;102025.97;;;23.07;57.44
60715;BME280;46564;53.096;8.246;2022-07-23T14:47:52;101946.09;;;22.90;57.26
60715;BME280;46564;53.096;8.246;2022-07-23T14:52:54;101868.06;;;22.72;57.28
60715;BME280;46564;53.096;8.246;2022-07-23T14:57:56;101961.13;;;22.97;57.25
60715;BME280;46564;53.096;8.246;2022-07-23T15:02:58;101944.25;;;22.93;56.81
60715;BME280;46564;53.096;8.246;2022-07-23T15:08:01;101883.91;;;22.82;56.75
60715;BME280;46564;53.096;8.246;2022-07-23T15:13:02;101859.09;;;22.76;56.57
60715;BME280;46564;53.096;8.246;2022-07-23T15:18:04;101941.50;;;22.98;56.25
60715;BME280;46564;53.096;8.246;2022-07-23T15:23:07;101666.84;;;22.31;56.17
60715;BME280;46564;53.096;8.246;2022-07-23T15:28:10;101903.38;;;22.90;56.24
60715;BME280;46564;53.096;8.246;2022-07-23T15:33:12;101970.72;;;23.07;56.22
60715;BME280;46564;53.096;8.246;2022-07-23T15:38:21;102047.06;;;23.27;55.95
60715;BME280;46564;53.096;8.246;2022-07-23T15:43:26;102165.00;;;23.60;55.70
60715;BME280;46564;53.096;8.246;2022-07-23T15:48:29;102121.50;;;23.52;55.82
60715;BME280;46564;53.096;8.246;2022-07-23T15:53:31;102168.53;;;23.63;55.59
60715;BME280;46564;53.096;8.246;2022-07-23T15:58:37;102145.44;;;23.58;55.32
60715;BME280;46564;53.096;8.246;2022-07-23T16:03:40;102101.03;;;23.49;55.34
60715;BME280;46564;53.096;8.246;2022-07-23T16:08:42;102156.03;;;23.64;55.32
60715;BME280;46564;53.096;8.246;2022-07-23T16:13:44;102230.63;;;23.84;55.12
60715;BME280;46564;53.096;8.246;2022-07-23T16:18:46;102172.88;;;23.72;55.07
60715;BME280;46564;53.096;8.246;2022-07-23T16:23:52;102190.59;;;23.78;54.78
60715;BME280;46564;53.096;8.246;2022-07-23T16:28:53;102155.03;;;23.73;54.65
60715;BME280;46564;53.096;8.246;2022-07-23T16:33:55;101930.56;;;23.17;54.67
60715;BME280;46564;53.096;8.246;2022-07-23T16:38:57;102013.03;;;23.38;54.47
60715;BME280;46564;53.096;8.246;2022-07-23T16:44:06;101973.94;;;23.31;54.33
60715;BME280;46564;53.096;8.246;2022-07-23T16:49:08;102000.56;;;23.37;54.52
60715;BME280;46564;53.096;8.246;2022-07-23T16:54:10;102012.09;;;23.41;54.34
60715;BME280;46564;53.096;8.246;2022-07-23T16:59:12;102083.03;;;23.60;54.33
60715;BME280;46564;53.096;8.246;2022-07-23T17:04:14;101871.00;;;23.10;54.06
60715;BME280;46564;53.096;8.246;2022-07-23T17:09:16;101847.91;;;23.04;54.27
60715;BME280;46564;53.096;8.246;2022-07-23T17:14:17;101840.81;;;23.05;53.89
60715;BME280;46564;53.096;8.246;2022-07-23T17:19:19;101737.09;;;22.80;53.92
60715;BME280;46564;53.096;8.246;2022-07-23T17:24:21;101703.50;;;22.68;53.95
60715;BME280;46564;53.096;8.246;2022-07-23T17:29:23;101660.09;;;22.58;53.80
60715;BME280;46564;53.096;8.246;2022-07-23T17:34:24;101542.31;;;22.30;53.80
60715;BME280;46564;53.096;8.246;2022-07-23T17:39:27;101535.25;;;22.28;53.86
60715;BME280;46564;53.096;8.246;2022-07-23T17:44:29;101531.69;;;22.29;53.74
60715;BME280;46564;53.096;8.246;2022-07-23T17:49:31;101505.16;;;22.21;53.87
60715;BME280;46564;53.096;8.246;2022-07-23T17:54:32;101215.19;;;21.48;53.59
60715;BME280;46564;53.096;8.246;2022-07-23T17:59:34;101037.78;;;21.01;53.66
60715;BME280;46564;53.096;8.246;2022-07-23T18:04:35;100869.31;;;20.59;54.06
60715;BME280;46564;53.096;8.246;2022-07-23T18:09:37;100842.88;;;20.51;53.76
60715;BME280;46564;53.096;8.246;2022-07-23T18:14:38;100779.47;;;20.33;54.07
60715;BME280;46564;53.096;8.246;2022-07-23T18:19:40;100758.31;;;20.28;53.93
60715;BME280;46564;53.096;8.246;2022-07-23T18:24:42;100709.03;;;20.13;54.16
60715;BME280;46564;53.096;8.246;2022-07-23T18:29:43;100671.16;;;20.05;54.36
60715;BME280;46564;53.096;8.246;2022-07-23T18:34:45;100607.00;;;19.83;54.41
60715;BME280;46564;53.096;8.246;2022-07-23T18:39:46;100588.53;;;19.78;54.65
60715;BME280;46564;53.096;8.246;2022-07-23T18:44:48;100527.81;;;19.61;54.81
60715;BME280;46564;53.096;8.246;2022-07-23T18:49:50;100490.00;;;19.51;54.52
60715;BME280;46564;53.096;8.246;2022-07-23T18:54:53;100408.28;;;19.28;54.75
60715;BME280;46564;53.096;8.246;2022-07-23T18:59:55;100389.88;;;19.20;54.68
60715;BME280;46564;53.096;8.246;2022-07-23T19:04:56;100365.31;;;19.12;54.91
60715;BME280;46564;53.096;8.246;2022-07-23T19:09:58;100322.28;;;19.01;55.27
60715;BME280;46564;53.096;8.246;2022-07-23T19:14:59;100276.63;;;18.86;55.36
60715;BME280;46564;53.096;8.246;2022-07-23T19:20:09;100224.81;;;18.71;55.80
60715;BME280;46564;53.096;8.246;2022-07-23T19:25:11;100163.44;;;18.52;55.54
60715;BME280;46564;53.096;8.246;2022-07-23T19:30:13;100080.00;;;18.33;55.90
60715;BME280;46564;53.096;8.246;2022-07-23T19:35:15;100017.78;;;18.13;56.47
60715;BME280;46564;53.096;8.246;2022-07-23T19:40:16;99960.84;;;17.97;56.48
60715;BME280;46564;53.096;8.246;2022-07-23T19:45:18;99872.31;;;17.73;56.69
60715;BME280;46564;53.096;8.246;2022-07-23T19:50:20;99818.88;;;17.58;56.49
60715;BME280;46564;53.096;8.246;2022-07-23T19:55:22;99764.63;;;17.42;56.91
60715;BME280;46564;53.096;8.246;2022-07-23T20:00:24;99698.13;;;17.23;57.12
60715;BME280;46564;53.096;8.246;2022-07-23T20:05:26;99649.19;;;17.06;57.21
60715;BME280;46564;53.096;8.246;2022-07-23T20:10:28;99605.44;;;16.94;57.60
60715;BME280;46564;53.096;8.246;2022-07-23T20:15:29;99564.31;;;16.83;57.78
60715;BME280;46564;53.096;8.246;2022-07-23T20:20:32;99545.19;;;16.74;57.81
60715;BME280;46564;53.096;8.246;2022-07-23T20:25:34;99504.09;;;16.63;58.11
60715;BME280;46564;53.096;8.246;2022-07-23T20:30:36;99453.44;;;16.47;58.10
60715;BME280;46564;53.096;8.246;2022-07-23T20:35:38;99417.66;;;16.36;58.43
60715;BME280;46564;53.096;8.246;2022-07-23T20:40:40;99380.13;;;16.25;58.79
60715;BME280;46564;53.096;8.246;2022-07-23T20:45:47;99339.16;;;16.10;58.73
60715;BME280;46564;53.096;8.246;2022-07-23T20:50:48;99272.81;;;15.91;59.10
60715;BME280;46564;53.096;8.246;2022-07-23T20:55:50;99251.03;;;15.84;59.37
60715;BME280;46564;53.096;8.246;2022-07-23T21:00:52;99244.16;;;15.79;59.50
60715;BME280;46564;53.096;8.246;2022-07-23T21:05:54;99204.81;;;15.69;59.69
60715;BME280;46564;53.096;8.246;2022-07-23T21:10:56;99192.69;;;15.62;59.75
60715;BME280;46564;53.096;8.246;2022-07-23T21:15:58;99153.50;;;15.50;59.99
60715;BME280;46564;53.096;8.246;2022-07-23T21:20:59;99149.22;;;15.46;60.26
60715;BME280;46564;53.096;8.246;2022-07-23T21:26:14;99122.25;;;15.36;60.62
60715;BME280;46564;53.096;8.246;2022-07-23T21:31:34;99076.00;;;15.24;60.80
60715;BME280;46564;53.096;8.246;2022-07-23T21:36:35;99050.78;;;15.15;61.14
60715;BME280;46564;53.096;8.246;2022-07-23T21:41:37;98995.94;;;14.98;61.14
60715;BME280;46564;53.096;8.246;2022-07-23T21:46:38;98975.09;;;14.89;61.51
60715;BME280;46564;53.096;8.246;2022-07-23T21:51:40;98974.28;;;14.87;61.72
60715;BME280;46564;53.096;8.246;2022-07-23T21:56:45;98947.31;;;14.79;61.92
60715;BME280;46564;53.096;8.246;2022-07-23T22:01:48;98920.31;;;14.71;62.16
60715;BME280;46564;53.096;8.246;2022-07-23T22:06:50;98881.13;;;14.58;62.38
60715;BME280;46564;53.096;8.246;2022-07-23T22:11:51;98849.88;;;14.47;62.67
60715;BME280;46564;53.096;8.246;2022-07-23T22:16:53;98825.56;;;14.38;62.88
60715;BME280;46564;53.096;8.246;2022-07-23T22:21:54;98809.06;;;14.32;62.86
60715;BME280;46564;53.096;8.246;2022-07-23T22:26:56;98808.22;;;14.30;63.24
60715;BME280;46564;53.096;8.246;2022-07-23T22:31:58;98797.03;;;14.24;63.31
60715;BME280;46564;53.096;8.246;2022-07-23T22:36:59;98780.53;;;14.19;63.68
60715;BME280;46564;53.096;8.246;2022-07-23T22:42:01;98772.69;;;14.15;63.82
60715;BME280;46564;53.096;8.246;2022-07-23T22:47:02;98755.44;;;14.07;64.18
60715;BME280;46564;53.096;8.246;2022-07-23T22:52:04;98743.25;;;14.03;64.42
60715;BME280;46564;53.096;8.246;2022-07-23T22:57:09;98720.69;;;13.94;64.51
60715;BME280;46564;53.096;8.246;2022-07-23T23:02:11;98706.00;;;13.87;64.71
60715;BME280;46564;53.096;8.246;2022-07-23T23:07:13;98690.34;;;13.82;65.03
60715;BME280;46564;53.096;8.246;2022-07-23T23:12:14;98673.88;;;13.77;65.30
60715;BME280;46564;53.096;8.246;2022-07-23T23:17:16;98644.38;;;13.66;65.52
60715;BME280;46564;53.096;8.246;2022-07-23T23:22:17;98620.94;;;13.58;65.83
60715;BME280;46564;53.096;8.246;2022-07-23T23:27:19;98607.94;;;13.53;65.87
60715;BME280;46564;53.096;8.246;2022-07-23T23:32:21;98600.13;;;13.50;66.13
60715;BME280;46564;53.096;8.246;2022-07-23T23:37:22;98587.19;;;13.44;66.35
60715;BME280;46564;53.096;8.246;2022-07-23T23:42:24;98575.97;;;13.37;66.66
60715;BME280;46564;53.096;8.246;2022-07-23T23:47:26;98557.69;;;13.33;66.74
60715;BME280;46564;53.096;8.246;2022-07-23T23:52:28;98559.50;;;13.31;67.07
60715;BME280;46564;53.096;8.246;2022-07-23T23:57:29;98551.81;;;13.24;67.19
